sensor_id;sensor_type;location;lat;lon;timestamp;pressure;altitude;pressure_sealevel;temperature;humidity
64835;BME280;51293;59.296;18.006;2022-12-13T00:00:15;99869.47;;;-4.68;81.15
64835;BME280;51293;59.296;18.006;2022-12-13T00:02:43;99871.44;;;-4.70;81.68
64835;BME280;51293;59.296;18.006;2022-12-13T00:05:08;99871.81;;;-4.65;82.26
64835;BME280;51293;59.296;18.006;2022-12-13T00:07:34;99872.94;;;-4.68;83.08
64835;BME280;51293;59.296;18.006;2022-12-13T00:10:00;99864.34;;;-4.70;83.90
64835;BME280;51293;59.296;18.006;2022-12-13T00:12:26;99859.16;;;-4.79;84.61
64835;BME280;51293;59.296;18.006;2022-12-13T00:14:52;99855.53;;;-4.78;85.53
64835;BME280;51293;59.296;18.006;2022-12-13T00:17:17;99862.31;;;-4.76;85.28
64835;BME280;51293;59.296;18.006;2022-12-13T00:19:42;99859.06;;;-4.70;85.46
64835;BME280;51293;59.296;18.006;2022-12-13T00:22:08;99860.50;;;-4.75;86.13
64835;BME280;51293;59.296;18.006;2022-12-13T00:24:33;99849.56;;;-4.81;85.99
64835;BME280;51293;59.296;18.006;2022-12-13T00:26:59;99843.91;;;-4.86;85.96
64835;BME280;51293;59.296;18.006;2022-12-13T00:29:24;99848.38;;;-4.86;86.41
64835;BME280;51293;59.296;18.006;2022-12-13T00:31:50;99839.75;;;-4.88;85.73
64835;BME280;51293;59.296;18.006;2022-12-13T00:34:15;99836.28;;;-4.89;85.21
64835;BME280;51293;59.296;18.006;2022-12-13T00:36:40;99827.31;;;-4.78;84.83
64835;BME280;51293;59.296;18.006;2022-12-13T00:39:06;99836.44;;;-4.90;85.21
64835;BME280;51293;59.296;18.006;2022-12-13T00:41:34;99817.44;;;-4.94;85.66
64835;BME280;51293;59.296;18.006;2022-12-13T00:44:00;99818.09;;;-4.92;86.13
64835;BME280;51293;59.296;18.006;2022-12-13T00:46:26;99844.00;;;-4.95;86.26
64835;BME280;51293;59.296;18.006;2022-12-13T00:48:55;99826.78;;;-4.99;86.78
64835;BME280;51293;59.296;18.006;2022-12-13T00:51:22;99832.91;;;-4.99;87.64
64835;BME280;51293;59.296;18.006;2022-12-13T00:53:48;99831.09;;;-4.98;87.98
64835;BME280;51293;59.296;18.006;2022-12-13T00:56:19;99828.94;;;-5.03;88.55
64835;BME280;51293;59.296;18.006;2022-12-13T00:58:46;99832.75;;;-5.15;89.36
64835;BME280;51293;59.296;18.006;2022-12-13T01:01:13;99829.13;;;-5.14;90.22
64835;BME280;51293;59.296;18.006;2022-12-13T01:03:40;99824.50;;;-5.20;90.85
64835;BME280;51293;59.296;18.006;2022-12-13T01:06:17;99825.81;;;-5.16;90.99
64835;BME280;51293;59.296;18.006;2022-12-13T01:08:44;99826.97;;;-5.19;91.50
64835;BME280;51293;59.296;18.006;2022-12-13T01:11:10;99818.81;;;-5.25;92.07
64835;BME280;51293;59.296;18.006;2022-12-13T01:13:36;99827.25;;;-5.22;92.04
64835;BME280;51293;59.296;18.006;2022-12-13T01:16:04;99823.66;;;-5.21;92.59
64835;BME280;51293;59.296;18.006;2022-12-13T01:18:30;99831.72;;;-5.22;92.59
64835;BME280;51293;59.296;18.006;2022-12-13T01:20:59;99824.09;;;-5.25;92.98
64835;BME280;51293;59.296;18.006;2022-12-13T01:23:26;99804.72;;;-5.34;93.28
64835;BME280;51293;59.296;18.006;2022-12-13T01:25:51;99817.53;;;-5.39;93.51
64835;BME280;51293;59.296;18.006;2022-12-13T01:28:17;99812.56;;;-5.42;93.41
64835;BME280;51293;59.296;18.006;2022-12-13T01:30:42;99823.78;;;-5.40;93.47
64835;BME280;51293;59.296;18.006;2022-12-13T01:33:07;99811.06;;;-5.45;93.93
64835;BME280;51293;59.296;18.006;2022-12-13T01:35:34;99809.25;;;-5.44;94.01
64835;BME280;51293;59.296;18.006;2022-12-13T01:37:59;99804.41;;;-5.49;94.19
64835;BME280;51293;59.296;18.006;2022-12-13T01:40:25;99801.94;;;-5.50;93.57
64835;BME280;51293;59.296;18.006;2022-12-13T01:42:50;99805.00;;;-5.55;94.26
64835;BME280;51293;59.296;18.006;2022-12-13T01:45:23;99802.34;;;-5.55;94.57
64835;BME280;51293;59.296;18.006;2022-12-13T01:47:56;99794.59;;;-5.56;94.55
64835;BME280;51293;59.296;18.006;2022-12-13T01:50:29;99797.94;;;-5.54;94.65
64835;BME280;51293;59.296;18.006;2022-12-13T01:52:56;99812.00;;;-5.63;94.84
64835;BME280;51293;59.296;18.006;2022-12-13T01:55:26;99789.63;;;-5.59;94.72
64835;BME280;51293;59.296;18.006;2022-12-13T01:57:54;99791.38;;;-5.50;94.85
64835;BME280;51293;59.296;18.006;2022-12-13T02:00:21;99787.16;;;-5.43;94.53
64835;BME280;51293;59.296;18.006;2022-12-13T02:02:48;99781.41;;;-5.56;94.52
64835;BME280;51293;59.296;18.006;2022-12-13T02:05:23;99776.84;;;-5.54;94.99
64835;BME280;51293;59.296;18.006;2022-12-13T02:07:51;99769.66;;;-5.62;95.38
64835;BME280;51293;59.296;18.006;2022-12-13T02:10:18;99774.88;;;-5.52;95.32
64835;BME280;51293;59.296;18.006;2022-12-13T02:12:43;99774.94;;;-5.62;95.66
64835;BME280;51293;59.296;18.006;2022-12-13T02:15:12;99772.31;;;-5.62;95.39
64835;BME280;51293;59.296;18.006;2022-12-13T02:18:11;99745.28;;;-5.56;95.19
64835;BME280;51293;59.296;18.006;2022-12-13T02:20:50;99769.88;;;-5.55;94.99
64835;BME280;51293;59.296;18.006;2022-12-13T02:24:08;99758.63;;;-5.57;95.04
64835;BME280;51293;59.296;18.006;2022-12-13T02:26:40;99752.78;;;-5.51;94.74
64835;BME280;51293;59.296;18.006;2022-12-13T02:34:55;99750.81;;;-5.85;94.57
64835;BME280;51293;59.296;18.006;2022-12-13T02:37:29;99747.69;;;-5.80;95.31
64835;BME280;51293;59.296;18.006;2022-12-13T02:40:16;99744.84;;;-5.87;95.66
64835;BME280;51293;59.296;18.006;2022-12-13T02:42:53;99731.50;;;-5.85;95.39
64835;BME280;51293;59.296;18.006;2022-12-13T02:45:27;99735.91;;;-5.94;95.10
64835;BME280;51293;59.296;18.006;2022-12-13T02:47:55;99743.13;;;-5.96;94.89
64835;BME280;51293;59.296;18.006;2022-12-13T02:50:23;99732.97;;;-5.91;95.13
64835;BME280;51293;59.296;18.006;2022-12-13T02:52:50;99732.19;;;-6.01;94.77
64835;BME280;51293;59.296;18.006;2022-12-13T02:55:16;99729.47;;;-6.09;94.53
64835;BME280;51293;59.296;18.006;2022-12-13T02:57:43;99743.47;;;-6.09;93.93
64835;BME280;51293;59.296;18.006;2022-12-13T03:00:19;99727.81;;;-6.38;93.45
64835;BME280;51293;59.296;18.006;2022-12-13T03:02:51;99732.41;;;-6.40;93.43
64835;BME280;51293;59.296;18.006;2022-12-13T03:08:25;99735.97;;;-6.59;93.79
64835;BME280;51293;59.296;18.006;2022-12-13T03:11:01;99725.28;;;-6.57;93.55
64835;BME280;51293;59.296;18.006;2022-12-13T03:13:33;99725.03;;;-6.64;93.51
64835;BME280;51293;59.296;18.006;2022-12-13T03:16:11;99718.25;;;-6.66;94.03
64835;BME280;51293;59.296;18.006;2022-12-13T03:18:38;99728.78;;;-6.66;94.33
64835;BME280;51293;59.296;18.006;2022-12-13T03:21:07;99731.41;;;-6.66;93.70
64835;BME280;51293;59.296;18.006;2022-12-13T03:23:34;99720.09;;;-6.76;94.67
64835;BME280;51293;59.296;18.006;2022-12-13T03:26:03;99717.84;;;-6.71;94.85
64835;BME280;51293;59.296;18.006;2022-12-13T03:28:29;99721.59;;;-6.74;94.57
64835;BME280;51293;59.296;18.006;2022-12-13T03:30:54;99716.03;;;-6.71;94.63
64835;BME280;51293;59.296;18.006;2022-12-13T03:33:20;99713.03;;;-6.76;94.61
64835;BME280;51293;59.296;18.006;2022-12-13T03:35:46;99724.66;;;-6.79;94.77
64835;BME280;51293;59.296;18.006;2022-12-13T03:38:14;99714.75;;;-6.94;94.71
64835;BME280;51293;59.296;18.006;2022-12-13T03:40:40;99716.94;;;-6.90;94.84
64835;BME280;51293;59.296;18.006;2022-12-13T03:43:05;99722.78;;;-6.86;95.18
64835;BME280;51293;59.296;18.006;2022-12-13T03:45:31;99716.28;;;-6.92;95.25
64835;BME280;51293;59.296;18.006;2022-12-13T03:47:56;99709.06;;;-6.90;94.97
64835;BME280;51293;59.296;18.006;2022-12-13T03:50:21;99704.09;;;-6.93;94.62
64835;BME280;51293;59.296;18.006;2022-12-13T03:52:47;99724.16;;;-6.92;94.14
64835;BME280;51293;59.296;18.006;2022-12-13T03:55:15;99709.91;;;-6.99;94.27
64835;BME280;51293;59.296;18.006;2022-12-13T03:57:40;99692.16;;;-6.97;94.07
64835;BME280;51293;59.296;18.006;2022-12-13T04:00:06;99704.22;;;-7.04;93.29
64835;BME280;51293;59.296;18.006;2022-12-13T04:02:31;99689.84;;;-7.00;93.84
64835;BME280;51293;59.296;18.006;2022-12-13T04:04:57;99690.13;;;-7.03;93.94
64835;BME280;51293;59.296;18.006;2022-12-13T04:07:22;99681.41;;;-7.13;93.68
64835;BME280;51293;59.296;18.006;2022-12-13T04:09:48;99685.47;;;-7.19;93.11
64835;BME280;51293;59.296;18.006;2022-12-13T04:12:13;99687.94;;;-7.17;93.41
64835;BME280;51293;59.296;18.006;2022-12-13T04:14:57;99689.91;;;-7.19;93.00
64835;BME280;51293;59.296;18.006;2022-12-13T04:17:22;99679.50;;;-7.21;93.32
64835;BME280;51293;59.296;18.006;2022-12-13T04:19:47;99685.72;;;-7.22;93.01
64835;BME280;51293;59.296;18.006;2022-12-13T04:22:13;99680.47;;;-7.22;92.69
64835;BME280;51293;59.296;18.006;2022-12-13T04:24:38;99666.47;;;-7.22;92.64
64835;BME280;51293;59.296;18.006;2022-12-13T04:27:03;99669.81;;;-7.30;92.42
64835;BME280;51293;59.296;18.006;2022-12-13T04:29:29;99658.91;;;-7.35;92.66
64835;BME280;51293;59.296;18.006;2022-12-13T04:31:55;99660.44;;;-7.42;92.29
64835;BME280;51293;59.296;18.006;2022-12-13T04:34:21;99659.72;;;-7.34;92.36
64835;BME280;51293;59.296;18.006;2022-12-13T04:36:46;99641.88;;;-7.41;92.37
64835;BME280;51293;59.296;18.006;2022-12-13T04:39:11;99651.00;;;-7.45;92.05
64835;BME280;51293;59.296;18.006;2022-12-13T04:41:37;99651.47;;;-7.49;92.29
64835;BME280;51293;59.296;18.006;2022-12-13T04:44:05;99646.03;;;-7.48;92.51
64835;BME280;51293;59.296;18.006;2022-12-13T04:46:31;99651.72;;;-7.43;91.95
64835;BME280;51293;59.296;18.006;2022-12-13T04:48:56;99655.44;;;-7.45;92.46
64835;BME280;51293;59.296;18.006;2022-12-13T04:51:22;99645.75;;;-7.45;91.87
64835;BME280;51293;59.296;18.006;2022-12-13T04:53:47;99631.38;;;-7.50;92.30
64835;BME280;51293;59.296;18.006;2022-12-13T04:56:12;99644.94;;;-7.55;92.01
64835;BME280;51293;59.296;18.006;2022-12-13T04:58:38;99643.72;;;-7.60;92.53
64835;BME280;51293;59.296;18.006;2022-12-13T05:01:07;99644.25;;;-7.57;92.43
64835;BME280;51293;59.296;18.006;2022-12-13T05:03:34;99645.38;;;-7.50;92.04
64835;BME280;51293;59.296;18.006;2022-12-13T05:06:06;99646.22;;;-7.59;91.79
64835;BME280;51293;59.296;18.006;2022-12-13T05:08:32;99655.63;;;-7.56;91.92
64835;BME280;51293;59.296;18.006;2022-12-13T05:10:58;99643.97;;;-7.54;91.92
64835;BME280;51293;59.296;18.006;2022-12-13T05:13:23;99652.00;;;-7.55;91.43
64835;BME280;51293;59.296;18.006;2022-12-13T05:16:00;99635.13;;;-7.63;91.34
64835;BME280;51293;59.296;18.006;2022-12-13T05:18:26;99630.16;;;-7.66;91.57
64835;BME280;51293;59.296;18.006;2022-12-13T05:20:52;99644.81;;;-7.63;91.77
64835;BME280;51293;59.296;18.006;2022-12-13T05:23:20;99637.53;;;-7.69;92.13
64835;BME280;51293;59.296;18.006;2022-12-13T05:25:46;99632.09;;;-7.58;92.32
64835;BME280;51293;59.296;18.006;2022-12-13T05:28:11;99622.81;;;-7.62;92.29
64835;BME280;51293;59.296;18.006;2022-12-13T05:30:38;99614.81;;;-7.70;92.93
64835;BME280;51293;59.296;18.006;2022-12-13T05:33:03;99642.50;;;-7.76;93.13
64835;BME280;51293;59.296;18.006;2022-12-13T05:35:29;99635.31;;;-7.83;93.23
64835;BME280;51293;59.296;18.006;2022-12-13T05:37:54;99638.50;;;-7.89;92.94
64835;BME280;51293;59.296;18.006;2022-12-13T05:40:20;99647.78;;;-7.85;92.91
64835;BME280;51293;59.296;18.006;2022-12-13T05:42:45;99646.81;;;-7.84;92.39
64835;BME280;51293;59.296;18.006;2022-12-13T05:45:11;99639.88;;;-7.76;92.69
64835;BME280;51293;59.296;18.006;2022-12-13T05:47:36;99634.88;;;-7.79;92.34
64835;BME280;51293;59.296;18.006;2022-12-13T05:50:02;99648.72;;;-7.77;92.21
64835;BME280;51293;59.296;18.006;2022-12-13T05:52:28;99654.38;;;-7.72;92.13
64835;BME280;51293;59.296;18.006;2022-12-13T05:54:54;99650.53;;;-7.77;92.40
64835;BME280;51293;59.296;18.006;2022-12-13T05:57:20;99642.34;;;-7.74;91.90
64835;BME280;51293;59.296;18.006;2022-12-13T05:59:46;99645.38;;;-7.79;91.56
64835;BME280;51293;59.296;18.006;2022-12-13T06:02:11;99633.66;;;-7.84;91.25
64835;BME280;51293;59.296;18.006;2022-12-13T06:04:36;99633.91;;;-7.87;90.85
64835;BME280;51293;59.296;18.006;2022-12-13T06:07:02;99642.22;;;-7.82;91.29
64835;BME280;51293;59.296;18.006;2022-12-13T06:09:27;99627.25;;;-7.72;90.92
64835;BME280;51293;59.296;18.006;2022-12-13T06:11:52;99633.22;;;-7.80;90.70
64835;BME280;51293;59.296;18.006;2022-12-13T06:14:18;99640.84;;;-7.77;90.36
64835;BME280;51293;59.296;18.006;2022-12-13T06:16:43;99634.75;;;-7.77;90.01
64835;BME280;51293;59.296;18.006;2022-12-13T06:19:09;99635.00;;;-7.71;90.02
64835;BME280;51293;59.296;18.006;2022-12-13T06:21:34;99649.28;;;-7.83;89.28
64835;BME280;51293;59.296;18.006;2022-12-13T06:24:00;99634.06;;;-7.79;89.22
64835;BME280;51293;59.296;18.006;2022-12-13T06:26:25;99635.84;;;-7.80;88.34
64835;BME280;51293;59.296;18.006;2022-12-13T06:28:51;99638.47;;;-7.80;87.99
64835;BME280;51293;59.296;18.006;2022-12-13T06:31:16;99621.47;;;-7.76;87.88
64835;BME280;51293;59.296;18.006;2022-12-13T06:33:42;99633.78;;;-7.76;87.06
64835;BME280;51293;59.296;18.006;2022-12-13T06:36:08;99629.63;;;-7.69;87.11
64835;BME280;51293;59.296;18.006;2022-12-13T06:38:34;99629.22;;;-7.74;86.48
64835;BME280;51293;59.296;18.006;2022-12-13T06:41:12;99619.38;;;-7.72;85.65
64835;BME280;51293;59.296;18.006;2022-12-13T06:43:41;99619.00;;;-7.77;85.71
64835;BME280;51293;59.296;18.006;2022-12-13T06:46:07;99626.84;;;-7.68;85.58
64835;BME280;51293;59.296;18.006;2022-12-13T06:48:32;99635.44;;;-7.75;85.70
64835;BME280;51293;59.296;18.006;2022-12-13T06:50:59;99623.50;;;-7.70;85.91
64835;BME280;51293;59.296;18.006;2022-12-13T06:53:25;99627.69;;;-7.77;84.92
64835;BME280;51293;59.296;18.006;2022-12-13T06:55:51;99619.66;;;-7.75;85.27
64835;BME280;51293;59.296;18.006;2022-12-13T06:58:16;99620.88;;;-7.70;84.37
64835;BME280;51293;59.296;18.006;2022-12-13T07:00:42;99623.50;;;-7.70;84.30
64835;BME280;51293;59.296;18.006;2022-12-13T07:03:08;99616.88;;;-7.64;84.03
64835;BME280;51293;59.296;18.006;2022-12-13T07:05:36;99630.16;;;-7.66;84.28
64835;BME280;51293;59.296;18.006;2022-12-13T07:08:02;99624.09;;;-7.66;83.31
64835;BME280;51293;59.296;18.006;2022-12-13T07:10:27;99623.13;;;-7.75;83.88
64835;BME280;51293;59.296;18.006;2022-12-13T07:12:53;99623.94;;;-7.65;83.59
64835;BME280;51293;59.296;18.006;2022-12-13T07:15:18;99602.63;;;-7.71;83.16
64835;BME280;51293;59.296;18.006;2022-12-13T07:17:43;99604.56;;;-7.73;83.02
64835;BME280;51293;59.296;18.006;2022-12-13T07:20:09;99610.50;;;-7.71;83.12
64835;BME280;51293;59.296;18.006;2022-12-13T07:22:37;99615.22;;;-7.65;82.89
64835;BME280;51293;59.296;18.006;2022-12-13T07:25:03;99621.63;;;-7.77;83.03
64835;BME280;51293;59.296;18.006;2022-12-13T07:27:29;99614.41;;;-7.75;83.12
64835;BME280;51293;59.296;18.006;2022-12-13T07:29:54;99611.50;;;-7.72;83.81
64835;BME280;51293;59.296;18.006;2022-12-13T07:32:19;99627.94;;;-7.70;82.66
64835;BME280;51293;59.296;18.006;2022-12-13T07:34:45;99614.38;;;-7.66;82.27
64835;BME280;51293;59.296;18.006;2022-12-13T07:37:10;99625.88;;;-7.67;82.35
64835;BME280;51293;59.296;18.006;2022-12-13T07:39:35;99621.31;;;-7.74;82.71
64835;BME280;51293;59.296;18.006;2022-12-13T07:42:01;99623.94;;;-7.74;82.31
64835;BME280;51293;59.296;18.006;2022-12-13T07:44:26;99625.06;;;-7.67;82.25
64835;BME280;51293;59.296;18.006;2022-12-13T07:46:51;99622.81;;;-7.62;81.92
64835;BME280;51293;59.296;18.006;2022-12-13T07:49:17;99614.13;;;-7.72;82.43
64835;BME280;51293;59.296;18.006;2022-12-13T07:51:42;99636.53;;;-7.68;81.80
64835;BME280;51293;59.296;18.006;2022-12-13T07:54:08;99609.00;;;-7.74;81.67
64835;BME280;51293;59.296;18.006;2022-12-13T07:56:35;99621.63;;;-7.77;81.70
64835;BME280;51293;59.296;18.006;2022-12-13T07:59:00;99631.16;;;-7.76;81.66
64835;BME280;51293;59.296;18.006;2022-12-13T08:01:26;99633.50;;;-7.73;81.63
64835;BME280;51293;59.296;18.006;2022-12-13T08:03:52;99622.31;;;-7.75;81.12
64835;BME280;51293;59.296;18.006;2022-12-13T08:06:17;99622.97;;;-7.73;81.69
64835;BME280;51293;59.296;18.006;2022-12-13T08:08:44;99630.56;;;-7.70;81.45
64835;BME280;51293;59.296;18.006;2022-12-13T08:11:12;99629.91;;;-7.72;81.83
64835;BME280;51293;59.296;18.006;2022-12-13T08:13:38;99636.53;;;-7.68;81.88
64835;BME280;51293;59.296;18.006;2022-12-13T08:16:06;99633.34;;;-7.72;81.40
64835;BME280;51293;59.296;18.006;2022-12-13T08:18:32;99626.84;;;-7.68;81.10
64835;BME280;51293;59.296;18.006;2022-12-13T08:21:05;99643.34;;;-7.75;80.84
64835;BME280;51293;59.296;18.006;2022-12-13T08:23:32;99626.00;;;-7.78;81.14
64835;BME280;51293;59.296;18.006;2022-12-13T08:25:59;99630.44;;;-7.78;80.72
64835;BME280;51293;59.296;18.006;2022-12-13T08:28:25;99649.69;;;-7.68;80.46
64835;BME280;51293;59.296;18.006;2022-12-13T08:30:52;99635.84;;;-7.70;80.27
64835;BME280;51293;59.296;18.006;2022-12-13T08:33:17;99630.47;;;-7.69;80.90
64835;BME280;51293;59.296;18.006;2022-12-13T08:35:43;99626.03;;;-7.68;80.13
64835;BME280;51293;59.296;18.006;2022-12-13T08:38:09;99634.59;;;-7.66;80.29
64835;BME280;51293;59.296;18.006;2022-12-13T08:40:35;99632.53;;;-7.72;79.59
64835;BME280;51293;59.296;18.006;2022-12-13T08:43:01;99638.34;;;-7.78;79.90
64835;BME280;51293;59.296;18.006;2022-12-13T08:45:27;99642.50;;;-7.76;80.58
64835;BME280;51293;59.296;18.006;2022-12-13T08:47:52;99641.25;;;-7.72;80.65
64835;BME280;51293;59.296;18.006;2022-12-13T08:50:18;99643.72;;;-7.70;80.07
64835;BME280;51293;59.296;18.006;2022-12-13T08:52:43;99640.69;;;-7.75;79.93
64835;BME280;51293;59.296;18.006;2022-12-13T08:55:13;99651.78;;;-7.81;80.40
64835;BME280;51293;59.296;18.006;2022-12-13T08:57:40;99657.44;;;-7.67;80.57
64835;BME280;51293;59.296;18.006;2022-12-13T09:00:07;99659.25;;;-7.77;80.02
64835;BME280;51293;59.296;18.006;2022-12-13T09:02:33;99651.91;;;-7.83;79.85
64835;BME280;51293;59.296;18.006;2022-12-13T09:04:59;99658.44;;;-7.77;80.24
64835;BME280;51293;59.296;18.006;2022-12-13T09:07:24;99655.38;;;-7.82;80.78
64835;BME280;51293;59.296;18.006;2022-12-13T09:09:49;99648.88;;;-7.88;80.94
64835;BME280;51293;59.296;18.006;2022-12-13T09:12:15;99656.59;;;-7.86;81.39
64835;BME280;51293;59.296;18.006;2022-12-13T09:14:40;99665.31;;;-7.96;81.20
64835;BME280;51293;59.296;18.006;2022-12-13T09:17:06;99657.72;;;-7.99;81.18
64835;BME280;51293;59.296;18.006;2022-12-13T09:19:31;99650.38;;;-8.05;80.86
64835;BME280;51293;59.296;18.006;2022-12-13T09:21:57;99662.31;;;-8.10;81.23
64835;BME280;51293;59.296;18.006;2022-12-13T09:24:22;99654.81;;;-8.15;81.47
64835;BME280;51293;59.296;18.006;2022-12-13T09:26:47;99659.25;;;-8.15;81.15
64835;BME280;51293;59.296;18.006;2022-12-13T09:29:13;99668.91;;;-8.26;80.86
64835;BME280;51293;59.296;18.006;2022-12-13T09:31:40;99681.63;;;-8.31;81.11
64835;BME280;51293;59.296;18.006;2022-12-13T09:34:06;99674.31;;;-8.37;81.77
64835;BME280;51293;59.296;18.006;2022-12-13T09:36:31;99666.84;;;-8.41;81.78
64835;BME280;51293;59.296;18.006;2022-12-13T09:38:56;99672.50;;;-8.36;81.54
64835;BME280;51293;59.296;18.006;2022-12-13T09:41:31;99676.38;;;-8.40;81.41
64835;BME280;51293;59.296;18.006;2022-12-13T09:44:05;99675.94;;;-8.45;81.38
64835;BME280;51293;59.296;18.006;2022-12-13T09:46:35;99680.78;;;-8.51;81.14
64835;BME280;51293;59.296;18.006;2022-12-13T09:49:04;99667.91;;;-8.54;81.16
64835;BME280;51293;59.296;18.006;2022-12-13T09:51:32;99692.94;;;-8.59;81.02
64835;BME280;51293;59.296;18.006;2022-12-13T09:53:58;99679.06;;;-8.61;81.39
64835;BME280;51293;59.296;18.006;2022-12-13T09:56:24;99683.25;;;-8.59;80.87
64835;BME280;51293;59.296;18.006;2022-12-13T09:58:52;99676.75;;;-8.55;81.57
64835;BME280;51293;59.296;18.006;2022-12-13T10:01:18;99686.44;;;-8.55;80.93
64835;BME280;51293;59.296;18.006;2022-12-13T10:03:48;99679.91;;;-8.61;80.02
64835;BME280;51293;59.296;18.006;2022-12-13T10:06:16;99675.09;;;-8.56;80.47
64835;BME280;51293;59.296;18.006;2022-12-13T10:08:44;99676.63;;;-8.53;80.60
64835;BME280;51293;59.296;18.006;2022-12-13T10:11:13;99684.31;;;-8.61;80.14
64835;BME280;51293;59.296;18.006;2022-12-13T10:13:42;99688.50;;;-8.59;80.04
64835;BME280;51293;59.296;18.006;2022-12-13T10:16:16;99666.25;;;-8.55;80.90
64835;BME280;51293;59.296;18.006;2022-12-13T10:18:43;99683.41;;;-8.60;80.06
64835;BME280;51293;59.296;18.006;2022-12-13T10:21:17;99672.75;;;-8.59;80.85
64835;BME280;51293;59.296;18.006;2022-12-13T10:23:44;99688.25;;;-8.46;80.43
64835;BME280;51293;59.296;18.006;2022-12-13T10:26:11;99666.09;;;-8.53;80.48
64835;BME280;51293;59.296;18.006;2022-12-13T10:28:38;99677.44;;;-8.53;80.13
64835;BME280;51293;59.296;18.006;2022-12-13T10:31:04;99673.88;;;-8.52;79.64
64835;BME280;51293;59.296;18.006;2022-12-13T10:33:35;99676.66;;;-8.43;80.02
64835;BME280;51293;59.296;18.006;2022-12-13T10:36:31;99680.94;;;-8.42;79.03
64835;BME280;51293;59.296;18.006;2022-12-13T10:38:57;99682.69;;;-8.53;79.38
64835;BME280;51293;59.296;18.006;2022-12-13T10:46:42;99678.03;;;-8.49;78.37
64835;BME280;51293;59.296;18.006;2022-12-13T10:49:21;99689.63;;;-8.52;78.34
64835;BME280;51293;59.296;18.006;2022-12-13T10:51:47;99674.13;;;-8.55;78.56
64835;BME280;51293;59.296;18.006;2022-12-13T10:54:22;99695.41;;;-8.58;79.27
64835;BME280;51293;59.296;18.006;2022-12-13T10:56:50;99690.16;;;-8.58;79.02
64835;BME280;51293;59.296;18.006;2022-12-13T11:01:45;99680.63;;;-8.59;80.02
64835;BME280;51293;59.296;18.006;2022-12-13T11:04:33;99689.75;;;-8.53;79.97
64835;BME280;51293;59.296;18.006;2022-12-13T11:07:22;99695.97;;;-8.54;79.63
64835;BME280;51293;59.296;18.006;2022-12-13T11:09:48;99700.25;;;-8.53;79.35
64835;BME280;51293;59.296;18.006;2022-12-13T11:12:14;99686.41;;;-8.65;79.06
64835;BME280;51293;59.296;18.006;2022-12-13T11:15:07;99692.94;;;-8.59;79.46
64835;BME280;51293;59.296;18.006;2022-12-13T11:17:47;99698.44;;;-8.62;79.63
64835;BME280;51293;59.296;18.006;2022-12-13T11:20:17;99692.78;;;-8.58;79.46
64835;BME280;51293;59.296;18.006;2022-12-13T11:22:44;99702.97;;;-8.74;79.31
64835;BME280;51293;59.296;18.006;2022-12-13T11:25:26;99688.41;;;-8.78;79.70
64835;BME280;51293;59.296;18.006;2022-12-13T11:28:09;99692.31;;;-8.72;79.90
64835;BME280;51293;59.296;18.006;2022-12-13T11:30:54;99683.47;;;-8.71;80.38
64835;BME280;51293;59.296;18.006;2022-12-13T11:33:31;99691.69;;;-8.86;79.70
64835;BME280;51293;59.296;18.006;2022-12-13T11:36:23;99691.31;;;-8.81;79.18
64835;BME280;51293;59.296;18.006;2022-12-13T11:41:27;99692.59;;;-8.75;79.97
64835;BME280;51293;59.296;18.006;2022-12-13T11:44:00;99687.59;;;-8.79;80.33
64835;BME280;51293;59.296;18.006;2022-12-13T11:46:36;99690.75;;;-8.85;79.71
64835;BME280;51293;59.296;18.006;2022-12-13T11:49:10;99688.66;;;-8.91;79.63
64835;BME280;51293;59.296;18.006;2022-12-13T11:51:45;99684.25;;;-8.90;79.75
64835;BME280;51293;59.296;18.006;2022-12-13T11:56:46;99691.16;;;-8.89;80.98
64835;BME280;51293;59.296;18.006;2022-12-13T12:01:54;99697.75;;;-8.95;80.43
64835;BME280;51293;59.296;18.006;2022-12-13T12:07:10;99696.34;;;-8.99;79.39
64835;BME280;51293;59.296;18.006;2022-12-13T12:09:40;99698.97;;;-8.99;79.96
64835;BME280;51293;59.296;18.006;2022-12-13T12:12:15;99704.09;;;-8.97;79.99
64835;BME280;51293;59.296;18.006;2022-12-13T12:17:32;99705.84;;;-9.08;79.95
64835;BME280;51293;59.296;18.006;2022-12-13T12:19:57;99700.00;;;-9.11;79.21
64835;BME280;51293;59.296;18.006;2022-12-13T12:22:43;99706.91;;;-9.10;79.06
64835;BME280;51293;59.296;18.006;2022-12-13T12:25:29;99711.69;;;-9.25;79.13
64835;BME280;51293;59.296;18.006;2022-12-13T12:55:42;99705.03;;;-9.50;79.88
64835;BME280;51293;59.296;18.006;2022-12-13T12:58:19;99700.63;;;-9.49;79.74
64835;BME280;51293;59.296;18.006;2022-12-13T13:01:10;99710.16;;;-9.48;79.95
64835;BME280;51293;59.296;18.006;2022-12-13T13:03:41;99708.56;;;-9.40;79.80
64835;BME280;51293;59.296;18.006;2022-12-13T13:06:37;99714.31;;;-9.46;79.89
64835;BME280;51293;59.296;18.006;2022-12-13T13:09:07;99708.81;;;-9.43;80.59
64835;BME280;51293;59.296;18.006;2022-12-13T13:11:37;99719.38;;;-9.33;79.90
64835;BME280;51293;59.296;18.006;2022-12-13T13:14:27;99716.03;;;-9.35;79.75
64835;BME280;51293;59.296;18.006;2022-12-13T13:16:52;99722.13;;;-9.35;79.53
64835;BME280;51293;59.296;18.006;2022-12-13T13:21:49;99720.91;;;-9.51;79.18
64835;BME280;51293;59.296;18.006;2022-12-13T13:26:58;99732.44;;;-9.43;79.74
64835;BME280;51293;59.296;18.006;2022-12-13T13:29:39;99719.69;;;-9.47;80.73
64835;BME280;51293;59.296;18.006;2022-12-13T13:34:46;99717.56;;;-9.53;80.54
64835;BME280;51293;59.296;18.006;2022-12-13T13:42:25;99722.41;;;-9.70;81.03
64835;BME280;51293;59.296;18.006;2022-12-13T14:08:38;99740.66;;;-10.00;80.78
64835;BME280;51293;59.296;18.006;2022-12-13T14:25:28;99721.97;;;-10.18;79.91
64835;BME280;51293;59.296;18.006;2022-12-13T14:30:28;99726.72;;;-10.12;79.49
64835;BME280;51293;59.296;18.006;2022-12-13T14:32:54;99729.47;;;-10.13;80.07
64835;BME280;51293;59.296;18.006;2022-12-13T14:35:31;99719.84;;;-10.13;79.30
64835;BME280;51293;59.296;18.006;2022-12-13T14:37:57;99735.69;;;-10.14;78.94
64835;BME280;51293;59.296;18.006;2022-12-13T14:40:47;99733.63;;;-10.11;79.30
64835;BME280;51293;59.296;18.006;2022-12-13T14:45:53;99730.31;;;-10.13;79.93
64835;BME280;51293;59.296;18.006;2022-12-13T14:48:19;99727.34;;;-10.08;79.63
64835;BME280;51293;59.296;18.006;2022-12-13T14:50:45;99726.59;;;-10.10;79.73